sensor_id;sensor_type;location;lat;lon;timestamp;temperature;humidity
37646;DHT22;23489;49.600;6.138;2023-04-25T00:02:00;7.40;99.90
37646;DHT22;23489;49.600;6.138;2023-04-25T00:04:27;7.40;99.90
37646;DHT22;23489;49.600;6.138;2023-04-25T00:06:53;7.40;99.90
37646;DHT22;23489;49.600;6.138;2023-04-25T00:09:19;7.40;99.90
37646;DHT22;23489;49.600;6.138;2023-04-25T00:11:44;7.20;99.90
37646;DHT22;23489;49.600;6.138;2023-04-25T00:14:10;7.10;99.90
37646;DHT22;23489;49.600;6.138;2023-04-25T00:16:36;7.10;99.90
37646;DHT22;23489;49.600;6.138;2023-04-25T00:19:01;7.00;99.90
37646;DHT22;23489;49.600;6.138;2023-04-25T00:21:28;7.00;99.90
37646;DHT22;23489;49.600;6.138;2023-04-25T00:23:54;7.00;99.90
37646;DHT22;23489;49.600;6.138;2023-04-25T00:26:19;7.00;99.90
37646;DHT22;23489;49.600;6.138;2023-04-25T00:28:47;7.00;99.90
37646;DHT22;23489;49.600;6.138;2023-04-25T00:31:12;7.00;99.90
37646;DHT22;23489;49.600;6.138;2023-04-25T00:33:38;7.00;99.90
37646;DHT22;23489;49.600;6.138;2023-04-25T00:36:04;7.00;99.90
37646;DHT22;23489;49.600;6.138;2023-04-25T00:38:30;7.00;99.90
37646;DHT22;23489;49.600;6.138;2023-04-25T00:40:56;7.00;99.90
37646;DHT22;23489;49.600;6.138;2023-04-25T00:43:28;7.00;99.90
37646;DHT22;23489;49.600;6.138;2023-04-25T00:45:56;6.90;99.90
37646;DHT22;23489;49.600;6.138;2023-04-25T00:48:23;6.90;99.90
37646;DHT22;23489;49.600;6.138;2023-04-25T00:50:52;6.90;99.90
37646;DHT22;23489;49.600;6.138;2023-04-25T00:53:23;6.90;99.90
37646;DHT22;23489;49.600;6.138;2023-04-25T00:55:50;6.80;99.90
37646;DHT22;23489;49.600;6.138;2023-04-25T00:58:19;6.90;99.90
37646;DHT22;23489;49.600;6.138;2023-04-25T01:00:46;6.80;99.90
37646;DHT22;23489;49.600;6.138;2023-04-25T01:03:13;6.90;99.90
37646;DHT22;23489;49.600;6.138;2023-04-25T01:05:40;6.90;99.90
37646;DHT22;23489;49.600;6.138;2023-04-25T01:08:07;6.90;99.90
37646;DHT22;23489;49.600;6.138;2023-04-25T01:10:32;6.90;99.90
37646;DHT22;23489;49.600;6.138;2023-04-25T01:12:58;6.90;99.90
37646;DHT22;23489;49.600;6.138;2023-04-25T01:15:24;6.90;99.90
37646;DHT22;23489;49.600;6.138;2023-04-25T01:17:50;6.90;99.90
37646;DHT22;23489;49.600;6.138;2023-04-25T01:20:16;6.90;99.90
37646;DHT22;23489;49.600;6.138;2023-04-25T01:22:42;6.90;99.90
37646;DHT22;23489;49.600;6.138;2023-04-25T01:25:08;6.90;99.90
37646;DHT22;23489;49.600;6.138;2023-04-25T01:27:36;6.90;99.90
37646;DHT22;23489;49.600;6.138;2023-04-25T01:30:02;7.00;99.90
37646;DHT22;23489;49.600;6.138;2023-04-25T01:32:30;6.90;99.90
37646;DHT22;23489;49.600;6.138;2023-04-25T01:35:04;6.90;99.90
37646;DHT22;23489;49.600;6.138;2023-04-25T01:37:38;6.90;99.90
37646;DHT22;23489;49.600;6.138;2023-04-25T01:40:04;6.90;99.90
37646;DHT22;23489;49.600;6.138;2023-04-25T01:42:32;6.90;99.90
37646;DHT22;23489;49.600;6.138;2023-04-25T01:44:58;7.00;99.90
37646;DHT22;23489;49.600;6.138;2023-04-25T01:47:24;7.00;99.90
37646;DHT22;23489;49.600;6.138;2023-04-25T01:49:49;7.00;99.90
37646;DHT22;23489;49.600;6.138;2023-04-25T01:52:15;6.90;99.90
37646;DHT22;23489;49.600;6.138;2023-04-25T01:54:41;7.00;99.90
37646;DHT22;23489;49.600;6.138;2023-04-25T01:57:11;6.90;99.90
37646;DHT22;23489;49.600;6.138;2023-04-25T01:59:38;6.90;99.90
37646;DHT22;23489;49.600;6.138;2023-04-25T02:02:40;6.90;99.90
37646;DHT22;23489;49.600;6.138;2023-04-25T02:05:19;6.90;99.90
37646;DHT22;23489;49.600;6.138;2023-04-25T02:07:47;6.80;99.90
37646;DHT22;23489;49.600;6.138;2023-04-25T02:10:14;6.90;99.90
37646;DHT22;23489;49.600;6.138;2023-04-25T02:12:51;6.90;99.90
37646;DHT22;23489;49.600;6.138;2023-04-25T02:15:23;6.90;99.90
37646;DHT22;23489;49.600;6.138;2023-04-25T02:17:56;6.80;99.90
37646;DHT22;23489;49.600;6.138;2023-04-25T02:20:23;6.80;99.90
37646;DHT22;23489;49.600;6.138;2023-04-25T02:22:49;6.80;99.90
37646;DHT22;23489;49.600;6.138;2023-04-25T02:25:14;6.80;99.90
37646;DHT22;23489;49.600;6.138;2023-04-25T02:27:42;6.80;99.90
37646;DHT22;23489;49.600;6.138;2023-04-25T02:30:08;6.80;99.90
37646;DHT22;23489;49.600;6.138;2023-04-25T02:32:34;6.70;99.90
37646;DHT22;23489;49.600;6.138;2023-04-25T02:35:00;6.70;99.90
37646;DHT22;23489;49.600;6.138;2023-04-25T02:37:30;6.70;99.90
37646;DHT22;23489;49.600;6.138;2023-04-25T02:39:56;6.70;99.90
37646;DHT22;23489;49.600;6.138;2023-04-25T02:42:21;6.60;99.90
37646;DHT22;23489;49.600;6.138;2023-04-25T02:44:47;6.60;99.90
37646;DHT22;23489;49.600;6.138;2023-04-25T02:47:12;6.50;99.90
37646;DHT22;23489;49.600;6.138;2023-04-25T02:49:38;6.50;99.90
37646;DHT22;23489;49.600;6.138;2023-04-25T02:52:04;6.50;99.90
37646;DHT22;23489;49.600;6.138;2023-04-25T02:54:31;6.50;99.90
37646;DHT22;23489;49.600;6.138;2023-04-25T02:56:58;6.50;99.90
37646;DHT22;23489;49.600;6.138;2023-04-25T02:59:28;6.50;99.90
37646;DHT22;23489;49.600;6.138;2023-04-25T03:01:54;6.50;99.90
37646;DHT22;23489;49.600;6.138;2023-04-25T03:04:21;6.50;99.90
37646;DHT22;23489;49.600;6.138;2023-04-25T03:06:52;6.50;99.90
37646;DHT22;23489;49.600;6.138;2023-04-25T03:09:20;6.40;99.90
37646;DHT22;23489;49.600;6.138;2023-04-25T03:11:46;6.40;99.90
37646;DHT22;23489;49.600;6.138;2023-04-25T03:14:13;6.50;99.90
37646;DHT22;23489;49.600;6.138;2023-04-25T03:16:38;6.50;99.90
37646;DHT22;23489;49.600;6.138;2023-04-25T03:19:04;6.50;99.90
37646;DHT22;23489;49.600;6.138;2023-04-25T03:21:32;6.50;99.90
37646;DHT22;23489;49.600;6.138;2023-04-25T03:23:59;6.50;99.90
37646;DHT22;23489;49.600;6.138;2023-04-25T03:26:26;6.60;99.90
37646;DHT22;23489;49.600;6.138;2023-04-25T03:28:51;6.60;99.90
37646;DHT22;23489;49.600;6.138;2023-04-25T03:31:17;6.60;99.90
37646;DHT22;23489;49.600;6.138;2023-04-25T03:33:43;6.60;99.90
37646;DHT22;23489;49.600;6.138;2023-04-25T03:36:08;6.60;99.90
37646;DHT22;23489;49.600;6.138;2023-04-25T03:38:35;6.60;99.90
37646;DHT22;23489;49.600;6.138;2023-04-25T03:41:02;6.60;99.90
37646;DHT22;23489;49.600;6.138;2023-04-25T03:43:57;6.60;99.90
37646;DHT22;23489;49.600;6.138;2023-04-25T03:46:22;6.60;99.90
37646;DHT22;23489;49.600;6.138;2023-04-25T03:48:48;6.50;99.90
37646;DHT22;23489;49.600;6.138;2023-04-25T03:51:20;6.50;99.90
37646;DHT22;23489;49.600;6.138;2023-04-25T03:53:47;6.40;99.90
37646;DHT22;23489;49.600;6.138;2023-04-25T03:56:13;6.40;99.90
37646;DHT22;23489;49.600;6.138;2023-04-25T03:58:39;6.30;99.90
37646;DHT22;23489;49.600;6.138;2023-04-25T04:01:05;6.30;99.90
37646;DHT22;23489;49.600;6.138;2023-04-25T04:03:34;6.20;99.90
37646;DHT22;23489;49.600;6.138;2023-04-25T04:06:03;6.20;99.90
37646;DHT22;23489;49.600;6.138;2023-04-25T04:08:32;6.20;99.90
37646;DHT22;23489;49.600;6.138;2023-04-25T04:10:58;6.20;99.90
37646;DHT22;23489;49.600;6.138;2023-04-25T04:13:29;6.20;99.90
37646;DHT22;23489;49.600;6.138;2023-04-25T04:15:55;6.20;99.90
37646;DHT22;23489;49.600;6.138;2023-04-25T04:18:22;6.30;99.90
37646;DHT22;23489;49.600;6.138;2023-04-25T04:20:48;6.30;99.90
37646;DHT22;23489;49.600;6.138;2023-04-25T04:23:13;6.40;99.90
37646;DHT22;23489;49.600;6.138;2023-04-25T04:25:39;6.40;99.90
37646;DHT22;23489;49.600;6.138;2023-04-25T04:28:06;6.40;99.90
37646;DHT22;23489;49.600;6.138;2023-04-25T04:30:42;6.50;99.90
37646;DHT22;23489;49.600;6.138;2023-04-25T04:33:08;6.50;99.90
37646;DHT22;23489;49.600;6.138;2023-04-25T04:35:35;6.50;99.90
37646;DHT22;23489;49.600;6.138;2023-04-25T04:38:00;6.40;99.90
37646;DHT22;23489;49.600;6.138;2023-04-25T04:40:31;6.40;99.90
37646;DHT22;23489;49.600;6.138;2023-04-25T04:43:11;6.40;99.90
37646;DHT22;23489;49.600;6.138;2023-04-25T04:45:55;6.40;99.90
37646;DHT22;23489;49.600;6.138;2023-04-25T04:48:53;6.40;99.90
37646;DHT22;23489;49.600;6.138;2023-04-25T04:51:37;6.50;99.90
37646;DHT22;23489;49.600;6.138;2023-04-25T04:54:30;6.50;99.90
37646;DHT22;23489;49.600;6.138;2023-04-25T04:57:13;6.50;99.90
37646;DHT22;23489;49.600;6.138;2023-04-25T04:59:52;6.50;99.90
37646;DHT22;23489;49.600;6.138;2023-04-25T05:02:38;6.50;99.90
37646;DHT22;23489;49.600;6.138;2023-04-25T05:05:23;6.60;99.90
37646;DHT22;23489;49.600;6.138;2023-04-25T05:08:09;6.70;99.90
37646;DHT22;23489;49.600;6.138;2023-04-25T05:11:01;6.80;99.90
37646;DHT22;23489;49.600;6.138;2023-04-25T05:13:37;6.90;99.90
37646;DHT22;23489;49.600;6.138;2023-04-25T05:16:13;7.00;99.90
37646;DHT22;23489;49.600;6.138;2023-04-25T05:18:54;6.90;99.90
37646;DHT22;23489;49.600;6.138;2023-04-25T05:21:29;7.20;99.90
37646;DHT22;23489;49.600;6.138;2023-04-25T05:24:29;7.00;99.90
37646;DHT22;23489;49.600;6.138;2023-04-25T05:27:00;7.00;99.90
37646;DHT22;23489;49.600;6.138;2023-04-25T05:29:39;6.90;99.90
37646;DHT22;23489;49.600;6.138;2023-04-25T05:32:21;6.90;99.90
37646;DHT22;23489;49.600;6.138;2023-04-25T05:34:48;6.80;99.90
37646;DHT22;23489;49.600;6.138;2023-04-25T05:37:31;6.80;99.90
37646;DHT22;23489;49.600;6.138;2023-04-25T05:40:08;6.80;99.90
37646;DHT22;23489;49.600;6.138;2023-04-25T05:42:43;6.80;99.90
37646;DHT22;23489;49.600;6.138;2023-04-25T05:45:17;6.90;99.90
37646;DHT22;23489;49.600;6.138;2023-04-25T05:48:02;7.10;99.90
37646;DHT22;23489;49.600;6.138;2023-04-25T05:50:43;7.20;99.90
37646;DHT22;23489;49.600;6.138;2023-04-25T05:53:20;7.20;99.90
37646;DHT22;23489;49.600;6.138;2023-04-25T05:55:53;7.10;99.90
37646;DHT22;23489;49.600;6.138;2023-04-25T05:58:24;7.00;99.90
37646;DHT22;23489;49.600;6.138;2023-04-25T06:00:50;6.90;99.90
37646;DHT22;23489;49.600;6.138;2023-04-25T06:03:16;6.90;99.90
37646;DHT22;23489;49.600;6.138;2023-04-25T06:05:46;6.90;99.90
37646;DHT22;23489;49.600;6.138;2023-04-25T06:08:13;6.90;99.90
37646;DHT22;23489;49.600;6.138;2023-04-25T06:10:39;7.00;99.90
37646;DHT22;23489;49.600;6.138;2023-04-25T06:13:05;7.20;99.90
37646;DHT22;23489;49.600;6.138;2023-04-25T06:15:33;7.40;99.90
37646;DHT22;23489;49.600;6.138;2023-04-25T06:18:00;7.60;99.90
37646;DHT22;23489;49.600;6.138;2023-04-25T06:20:25;7.70;99.90
37646;DHT22;23489;49.600;6.138;2023-04-25T06:22:53;7.70;99.90
37646;DHT22;23489;49.600;6.138;2023-04-25T06:25:21;7.50;99.90
37646;DHT22;23489;49.600;6.138;2023-04-25T06:27:47;7.50;99.90
37646;DHT22;23489;49.600;6.138;2023-04-25T06:30:12;7.40;99.90
37646;DHT22;23489;49.600;6.138;2023-04-25T06:32:39;7.40;99.90
37646;DHT22;23489;49.600;6.138;2023-04-25T06:35:05;7.40;99.90
37646;DHT22;23489;49.600;6.138;2023-04-25T06:37:32;7.40;99.90
37646;DHT22;23489;49.600;6.138;2023-04-25T06:39:58;7.40;99.90
37646;DHT22;23489;49.600;6.138;2023-04-25T06:42:23;7.60;99.90
37646;DHT22;23489;49.600;6.138;2023-04-25T06:44:56;7.70;99.90
37646;DHT22;23489;49.600;6.138;2023-04-25T06:47:22;7.60;99.90
37646;DHT22;23489;49.600;6.138;2023-04-25T06:49:50;7.80;99.90
37646;DHT22;23489;49.600;6.138;2023-04-25T06:52:16;7.90;99.90
37646;DHT22;23489;49.600;6.138;2023-04-25T06:54:44;8.20;99.90
37646;DHT22;23489;49.600;6.138;2023-04-25T06:57:25;8.40;99.90
37646;DHT22;23489;49.600;6.138;2023-04-25T06:59:52;8.40;99.90
37646;DHT22;23489;49.600;6.138;2023-04-25T07:02:18;8.50;99.90
37646;DHT22;23489;49.600;6.138;2023-04-25T07:04:44;8.50;99.90
37646;DHT22;23489;49.600;6.138;2023-04-25T07:07:11;8.50;99.90
37646;DHT22;23489;49.600;6.138;2023-04-25T07:09:46;8.40;99.90
37646;DHT22;23489;49.600;6.138;2023-04-25T07:12:12;8.40;99.90
37646;DHT22;23489;49.600;6.138;2023-04-25T07:14:37;8.30;99.90
37646;DHT22;23489;49.600;6.138;2023-04-25T07:17:03;8.30;99.90
37646;DHT22;23489;49.600;6.138;2023-04-25T07:19:33;8.30;99.90
37646;DHT22;23489;49.600;6.138;2023-04-25T07:22:00;8.20;99.90
37646;DHT22;23489;49.600;6.138;2023-04-25T07:24:26;8.00;99.90
37646;DHT22;23489;49.600;6.138;2023-04-25T07:26:54;8.00;99.90
37646;DHT22;23489;49.600;6.138;2023-04-25T07:29:28;7.90;99.90
37646;DHT22;23489;49.600;6.138;2023-04-25T07:31:58;7.90;99.90
37646;DHT22;23489;49.600;6.138;2023-04-25T07:34:23;7.80;99.90
37646;DHT22;23489;49.600;6.138;2023-04-25T07:36:50;7.80;99.90
37646;DHT22;23489;49.600;6.138;2023-04-25T07:39:16;7.80;99.90
37646;DHT22;23489;49.600;6.138;2023-04-25T07:41:43;8.00;99.90
37646;DHT22;23489;49.600;6.138;2023-04-25T07:44:13;8.00;99.90
37646;DHT22;23489;49.600;6.138;2023-04-25T07:46:39;7.90;99.90
37646;DHT22;23489;49.600;6.138;2023-04-25T07:49:06;8.00;99.90
37646;DHT22;23489;49.600;6.138;2023-04-25T07:51:32;8.10;99.90
37646;DHT22;23489;49.600;6.138;2023-04-25T07:54:03;8.20;99.90
37646;DHT22;23489;49.600;6.138;2023-04-25T07:56:32;8.20;99.90
37646;DHT22;23489;49.600;6.138;2023-04-25T07:58:57;8.30;99.90
37646;DHT22;23489;49.600;6.138;2023-04-25T08:01:24;8.30;99.90
37646;DHT22;23489;49.600;6.138;2023-04-25T08:03:57;8.20;99.90
37646;DHT22;23489;49.600;6.138;2023-04-25T08:06:51;8.20;99.90
37646;DHT22;23489;49.600;6.138;2023-04-25T08:09:22;8.30;99.90
37646;DHT22;23489;49.600;6.138;2023-04-25T08:11:48;8.50;99.90
37646;DHT22;23489;49.600;6.138;2023-04-25T08:14:18;8.70;99.90
37646;DHT22;23489;49.600;6.138;2023-04-25T08:16:44;8.90;99.90
37646;DHT22;23489;49.600;6.138;2023-04-25T08:19:10;9.00;99.90
37646;DHT22;23489;49.600;6.138;2023-04-25T08:21:36;8.90;99.90
37646;DHT22;23489;49.600;6.138;2023-04-25T08:24:05;9.00;99.90
37646;DHT22;23489;49.600;6.138;2023-04-25T08:26:35;9.20;99.90
37646;DHT22;23489;49.600;6.138;2023-04-25T08:29:02;9.40;99.90
37646;DHT22;23489;49.600;6.138;2023-04-25T08:31:28;9.30;99.90
37646;DHT22;23489;49.600;6.138;2023-04-25T08:33:57;9.30;99.90
37646;DHT22;23489;49.600;6.138;2023-04-25T08:36:55;9.30;99.90
37646;DHT22;23489;49.600;6.138;2023-04-25T08:39:28;9.30;99.90
37646;DHT22;23489;49.600;6.138;2023-04-25T08:42:15;9.30;99.90
37646;DHT22;23489;49.600;6.138;2023-04-25T08:44:41;9.10;99.90
37646;DHT22;23489;49.600;6.138;2023-04-25T08:47:06;8.90;99.90
37646;DHT22;23489;49.600;6.138;2023-04-25T08:49:39;8.90;99.90
37646;DHT22;23489;49.600;6.138;2023-04-25T08:52:11;8.90;99.90
37646;DHT22;23489;49.600;6.138;2023-04-25T08:54:42;9.00;99.90
37646;DHT22;23489;49.600;6.138;2023-04-25T08:57:10;8.80;99.90
37646;DHT22;23489;49.600;6.138;2023-04-25T08:59:36;8.90;99.90
37646;DHT22;23489;49.600;6.138;2023-04-25T09:02:05;9.00;99.90
37646;DHT22;23489;49.600;6.138;2023-04-25T09:04:31;9.00;99.90
37646;DHT22;23489;49.600;6.138;2023-04-25T09:06:57;9.20;99.90
37646;DHT22;23489;49.600;6.138;2023-04-25T09:09:24;9.30;99.90
37646;DHT22;23489;49.600;6.138;2023-04-25T09:11:50;9.30;99.90
37646;DHT22;23489;49.600;6.138;2023-04-25T09:14:16;9.10;99.90
37646;DHT22;23489;49.600;6.138;2023-04-25T09:17:00;9.10;99.90
37646;DHT22;23489;49.600;6.138;2023-04-25T09:19:37;8.90;99.90
37646;DHT22;23489;49.600;6.138;2023-04-25T09:22:09;9.00;99.90
37646;DHT22;23489;49.600;6.138;2023-04-25T09:24:43;9.10;99.90
37646;DHT22;23489;49.600;6.138;2023-04-25T09:27:12;9.10;99.90
37646;DHT22;23489;49.600;6.138;2023-04-25T09:29:39;9.20;99.90
37646;DHT22;23489;49.600;6.138;2023-04-25T09:32:22;9.10;99.90
37646;DHT22;23489;49.600;6.138;2023-04-25T09:34:56;8.80;99.90
37646;DHT22;23489;49.600;6.138;2023-04-25T09:37:27;8.90;99.90
37646;DHT22;23489;49.600;6.138;2023-04-25T09:40:06;9.40;99.90
37646;DHT22;23489;49.600;6.138;2023-04-25T09:42:41;10.00;99.90
37646;DHT22;23489;49.600;6.138;2023-04-25T09:45:07;11.00;99.90
37646;DHT22;23489;49.600;6.138;2023-04-25T09:47:38;12.50;99.90
37646;DHT22;23489;49.600;6.138;2023-04-25T09:50:14;12.80;99.90
37646;DHT22;23489;49.600;6.138;2023-04-25T09:52:41;12.50;99.90
37646;DHT22;23489;49.600;6.138;2023-04-25T09:55:20;11.70;99.90
37646;DHT22;23489;49.600;6.138;2023-04-25T09:57:46;11.40;99.90
37646;DHT22;23489;49.600;6.138;2023-04-25T10:00:13;11.00;99.90
37646;DHT22;23489;49.600;6.138;2023-04-25T10:02:42;11.00;99.90
37646;DHT22;23489;49.600;6.138;2023-04-25T10:05:10;11.20;99.90
37646;DHT22;23489;49.600;6.138;2023-04-25T10:07:38;11.00;99.90
37646;DHT22;23489;49.600;6.138;2023-04-25T10:10:09;10.80;99.90
37646;DHT22;23489;49.600;6.138;2023-04-25T10:12:37;10.50;99.90
37646;DHT22;23489;49.600;6.138;2023-04-25T10:15:05;10.20;99.90
37646;DHT22;23489;49.600;6.138;2023-04-25T10:17:32;10.10;99.90
37646;DHT22;23489;49.600;6.138;2023-04-25T10:20:02;10.20;99.90
37646;DHT22;23489;49.600;6.138;2023-04-25T10:22:32;10.30;99.90
37646;DHT22;23489;49.600;6.138;2023-04-25T10:25:00;10.30;99.90
37646;DHT22;23489;49.600;6.138;2023-04-25T10:27:29;10.60;99.90
37646;DHT22;23489;49.600;6.138;2023-04-25T10:30:06;11.20;99.90
37646;DHT22;23489;49.600;6.138;2023-04-25T10:32:37;12.60;99.90
37646;DHT22;23489;49.600;6.138;2023-04-25T10:35:18;14.40;99.90
37646;DHT22;23489;49.600;6.138;2023-04-25T10:40:23;17.40;99.90
37646;DHT22;23489;49.600;6.138;2023-04-25T10:42:52;16.80;99.50
37646;DHT22;23489;49.600;6.138;2023-04-25T10:45:19;16.20;99.90
37646;DHT22;23489;49.600;6.138;2023-04-25T10:47:45;17.00;99.90
37646;DHT22;23489;49.600;6.138;2023-04-25T10:50:14;18.20;96.80
37646;DHT22;23489;49.600;6.138;2023-04-25T10:52:44;18.70;94.20
37646;DHT22;23489;49.600;6.138;2023-04-25T10:55:10;19.50;92.20
37646;DHT22;23489;49.600;6.138;2023-04-25T10:57:42;17.50;93.80
37646;DHT22;23489;49.600;6.138;2023-04-25T11:00:16;16.00;95.70
37646;DHT22;23489;49.600;6.138;2023-04-25T11:02:44;15.40;96.80
37646;DHT22;23489;49.600;6.138;2023-04-25T11:05:17;15.10;97.20
37646;DHT22;23489;49.600;6.138;2023-04-25T11:07:53;15.10;96.80
37646;DHT22;23489;49.600;6.138;2023-04-25T11:10:20;14.80;97.20
37646;DHT22;23489;49.600;6.138;2023-04-25T11:12:46;14.50;97.30
37646;DHT22;23489;49.600;6.138;2023-04-25T11:15:13;13.80;98.40
37646;DHT22;23489;49.600;6.138;2023-04-25T11:17:39;13.40;98.60
37646;DHT22;23489;49.600;6.138;2023-04-25T11:20:07;13.20;99.60
37646;DHT22;23489;49.600;6.138;2023-04-25T11:22:38;12.80;99.90
37646;DHT22;23489;49.600;6.138;2023-04-25T11:25:05;12.60;99.90
37646;DHT22;23489;49.600;6.138;2023-04-25T11:27:31;12.40;99.90
37646;DHT22;23489;49.600;6.138;2023-04-25T11:29:57;12.20;99.90
37646;DHT22;23489;49.600;6.138;2023-04-25T11:32:23;12.20;99.90
37646;DHT22;23489;49.600;6.138;2023-04-25T11:34:48;11.90;99.90
37646;DHT22;23489;49.600;6.138;2023-04-25T11:37:14;11.80;99.90
37646;DHT22;23489;49.600;6.138;2023-04-25T11:39:44;11.40;99.90
37646;DHT22;23489;49.600;6.138;2023-04-25T11:42:10;11.20;99.90
37646;DHT22;23489;49.600;6.138;2023-04-25T11:44:38;10.90;99.90
37646;DHT22;23489;49.600;6.138;2023-04-25T11:47:04;10.70;99.90
37646;DHT22;23489;49.600;6.138;2023-04-25T11:49:32;10.50;99.90
37646;DHT22;23489;49.600;6.138;2023-04-25T11:51:58;10.60;99.90
37646;DHT22;23489;49.600;6.138;2023-04-25T11:54:23;10.40;99.90
37646;DHT22;23489;49.600;6.138;2023-04-25T11:56:49;10.30;99.90
37646;DHT22;23489;49.600;6.138;2023-04-25T11:59:14;10.30;99.90
37646;DHT22;23489;49.600;6.138;2023-04-25T12:01:49;10.30;99.90
37646;DHT22;23489;49.600;6.138;2023-04-25T12:04:22;10.20;99.90
37646;DHT22;23489;49.600;6.138;2023-04-25T12:06:50;10.40;99.90
37646;DHT22;23489;49.600;6.138;2023-04-25T12:09:21;10.40;99.90
37646;DHT22;23489;49.600;6.138;2023-04-25T12:11:57;10.50;99.90
37646;DHT22;23489;49.600;6.138;2023-04-25T12:14:28;10.70;99.90
37646;DHT22;23489;49.600;6.138;2023-04-25T12:16:56;10.70;99.90
37646;DHT22;23489;49.600;6.138;2023-04-25T12:19:23;11.00;99.90
37646;DHT22;23489;49.600;6.138;2023-04-25T12:21:49;11.30;99.90
37646;DHT22;23489;49.600;6.138;2023-04-25T12:24:23;11.50;99.90
37646;DHT22;23489;49.600;6.138;2023-04-25T12:26:58;11.50;99.90
37646;DHT22;23489;49.600;6.138;2023-04-25T12:29:26;11.40;99.90
37646;DHT22;23489;49.600;6.138;2023-04-25T12:31:53;11.40;99.90
37646;DHT22;23489;49.600;6.138;2023-04-25T12:34:20;11.40;99.90
37646;DHT22;23489;49.600;6.138;2023-04-25T12:36:46;11.40;99.90
37646;DHT22;23489;49.600;6.138;2023-04-25T12:39:22;11.30;99.90
37646;DHT22;23489;49.600;6.138;2023-04-25T12:41:47;11.00;99.90
37646;DHT22;23489;49.600;6.138;2023-04-25T12:44:13;11.20;99.90
37646;DHT22;23489;49.600;6.138;2023-04-25T12:46:39;11.40;99.90
37646;DHT22;23489;49.600;6.138;2023-04-25T12:49:04;11.50;99.90
37646;DHT22;23489;49.600;6.138;2023-04-25T12:51:31;11.50;99.90
37646;DHT22;23489;49.600;6.138;2023-04-25T12:53:58;11.20;99.90
37646;DHT22;23489;49.600;6.138;2023-04-25T12:56:24;11.00;99.90
37646;DHT22;23489;49.600;6.138;2023-04-25T12:58:50;10.80;99.90
37646;DHT22;23489;49.600;6.138;2023-04-25T13:01:16;10.80;99.90
37646;DHT22;23489;49.600;6.138;2023-04-25T13:03:41;10.90;99.90
37646;DHT22;23489;49.600;6.138;2023-04-25T13:06:07;11.00;99.90
37646;DHT22;23489;49.600;6.138;2023-04-25T13:08:33;11.10;99.90
37646;DHT22;23489;49.600;6.138;2023-04-25T13:10:58;11.00;99.90
37646;DHT22;23489;49.600;6.138;2023-04-25T13:13:24;11.30;99.90
37646;DHT22;23489;49.600;6.138;2023-04-25T13:15:49;11.50;99.90
37646;DHT22;23489;49.600;6.138;2023-04-25T13:18:15;11.50;99.90
37646;DHT22;23489;49.600;6.138;2023-04-25T13:20:40;11.70;99.90
37646;DHT22;23489;49.600;6.138;2023-04-25T13:23:06;12.10;99.90
37646;DHT22;23489;49.600;6.138;2023-04-25T13:25:31;12.20;99.90
37646;DHT22;23489;49.600;6.138;2023-04-25T13:27:57;11.90;99.90
37646;DHT22;23489;49.600;6.138;2023-04-25T13:30:22;11.60;99.90
37646;DHT22;23489;49.600;6.138;2023-04-25T13:32:48;11.60;99.90
37646;DHT22;23489;49.600;6.138;2023-04-25T13:35:14;11.40;99.90
37646;DHT22;23489;49.600;6.138;2023-04-25T13:37:40;11.40;99.90
37646;DHT22;23489;49.600;6.138;2023-04-25T13:40:07;11.60;99.90
37646;DHT22;23489;49.600;6.138;2023-04-25T13:42:34;11.50;99.90
37646;DHT22;23489;49.600;6.138;2023-04-25T13:45:00;11.20;99.90
37646;DHT22;23489;49.600;6.138;2023-04-25T13:47:26;11.20;99.90
37646;DHT22;23489;49.600;6.138;2023-04-25T13:49:52;11.50;99.90
37646;DHT22;23489;49.600;6.138;2023-04-25T13:52:17;11.40;99.90
37646;DHT22;23489;49.600;6.138;2023-04-25T13:54:43;11.30;99.90
37646;DHT22;23489;49.600;6.138;2023-04-25T13:57:09;11.30;99.90
37646;DHT22;23489;49.600;6.138;2023-04-25T13:59:36;11.20;99.90
37646;DHT22;23489;49.600;6.138;2023-04-25T14:02:02;11.20;99.90
37646;DHT22;23489;49.600;6.138;2023-04-25T14:04:27;11.20;99.90
37646;DHT22;23489;49.600;6.138;2023-04-25T14:06:53;11.20;99.90
37646;DHT22;23489;49.600;6.138;2023-04-25T14:09:18;11.20;99.90
37646;DHT22;23489;49.600;6.138;2023-04-25T14:11:45;11.30;99.90
37646;DHT22;23489;49.600;6.138;2023-04-25T14:14:11;11.50;99.90
37646;DHT22;23489;49.600;6.138;2023-04-25T14:16:37;11.70;99.90
37646;DHT22;23489;49.600;6.138;2023-04-25T14:19:03;11.70;99.90
37646;DHT22;23489;49.600;6.138;2023-04-25T14:21:28;11.70;99.90
37646;DHT22;23489;49.600;6.138;2023-04-25T14:23:54;11.80;99.90
37646;DHT22;23489;49.600;6.138;2023-04-25T14:26:20;11.80;99.90
37646;DHT22;23489;49.600;6.138;2023-04-25T14:28:45;11.80;99.90
37646;DHT22;23489;49.600;6.138;2023-04-25T14:31:11;11.60;99.90
37646;DHT22;23489;49.600;6.138;2023-04-25T14:33:36;11.50;99.90
37646;DHT22;23489;49.600;6.138;2023-04-25T14:36:04;11.60;99.90
37646;DHT22;23489;49.600;6.138;2023-04-25T14:38:30;11.80;99.90
37646;DHT22;23489;49.600;6.138;2023-04-25T14:40:56;11.80;99.90
37646;DHT22;23489;49.600;6.138;2023-04-25T14:43:21;11.80;99.90
37646;DHT22;23489;49.600;6.138;2023-04-25T14:45:47;11.80;99.70
37646;DHT22;23489;49.600;6.138;2023-04-25T14:48:12;11.70;99.90
37646;DHT22;23489;49.600;6.138;2023-04-25T14:50:38;11.70;99.90
37646;DHT22;23489;49.600;6.138;2023-04-25T14:53:03;11.70;99.90
37646;DHT22;23489;49.600;6.138;2023-04-25T14:55:29;11.70;99.90
37646;DHT22;23489;49.600;6.138;2023-04-25T14:57:55;11.50;99.90
37646;DHT22;23489;49.600;6.138;2023-04-25T15:00:21;11.70;99.90
37646;DHT22;23489;49.600;6.138;2023-04-25T15:02:50;11.50;99.70
37646;DHT22;23489;49.600;6.138;2023-04-25T15:05:15;11.70;99.10
37646;DHT22;23489;49.600;6.138;2023-04-25T15:07:41;11.60;98.90
37646;DHT22;23489;49.600;6.138;2023-04-25T15:10:07;11.50;99.30
37646;DHT22;23489;49.600;6.138;2023-04-25T15:12:39;11.40;99.40
37646;DHT22;23489;49.600;6.138;2023-04-25T15:15:04;11.20;99.70
37646;DHT22;23489;49.600;6.138;2023-04-25T15:17:31;11.20;99.80
37646;DHT22;23489;49.600;6.138;2023-04-25T15:19:58;11.30;99.50
37646;DHT22;23489;49.600;6.138;2023-04-25T15:22:28;11.40;98.90
37646;DHT22;23489;49.600;6.138;2023-04-25T15:24:54;11.50;98.70
37646;DHT22;23489;49.600;6.138;2023-04-25T15:27:20;11.50;97.70
37646;DHT22;23489;49.600;6.138;2023-04-25T15:29:46;11.20;97.50
37646;DHT22;23489;49.600;6.138;2023-04-25T15:32:12;11.10;97.90
37646;DHT22;23489;49.600;6.138;2023-04-25T15:34:37;11.00;98.00
37646;DHT22;23489;49.600;6.138;2023-04-25T15:37:03;11.00;98.40
37646;DHT22;23489;49.600;6.138;2023-04-25T15:39:29;10.90;98.50
37646;DHT22;23489;49.600;6.138;2023-04-25T15:41:55;10.80;98.70
37646;DHT22;23489;49.600;6.138;2023-04-25T15:44:22;10.90;98.80
37646;DHT22;23489;49.600;6.138;2023-04-25T15:46:47;10.50;99.10
37646;DHT22;23489;49.600;6.138;2023-04-25T15:49:13;10.30;99.40
37646;DHT22;23489;49.600;6.138;2023-04-25T15:51:38;10.30;99.90
37646;DHT22;23489;49.600;6.138;2023-04-25T15:54:04;10.20;99.90